Map

Track Data

SID SEASON NUMBER BASIN SUBBASIN NAME ISO_TIME NATURE LAT LON WMO_WIND WMO_PRES WMO_AGENCY TRACK_TYPE DIST2LAND LANDFALL IFLAG USA_AGENCY USA_ATCF_ID USA_LAT USA_LON USA_RECORD USA_STATUS USA_WIND USA_PRES USA_SSHS USA_R34_NE USA_R34_SE USA_R34_SW USA_R34_NW USA_R50_NE USA_R50_SE USA_R50_SW USA_R50_NW USA_R64_NE USA_R64_SE USA_R64_SW USA_R64_NW USA_POCI USA_ROCI USA_RMW USA_EYE TOKYO_LAT TOKYO_LON TOKYO_GRADE TOKYO_WIND TOKYO_PRES TOKYO_R50_DIR TOKYO_R50_LONG TOKYO_R50_SHORT TOKYO_R30_DIR TOKYO_R30_LONG TOKYO_R30_SHORT TOKYO_LAND CMA_LAT CMA_LON CMA_CAT CMA_WIND CMA_PRES HKO_LAT HKO_LON HKO_CAT HKO_WIND HKO_PRES NEWDELHI_LAT NEWDELHI_LON NEWDELHI_GRADE NEWDELHI_WIND NEWDELHI_PRES NEWDELHI_CI NEWDELHI_DP NEWDELHI_POCI REUNION_LAT REUNION_LON REUNION_TYPE REUNION_WIND REUNION_PRES REUNION_TNUM REUNION_CI REUNION_RMW REUNION_R34_NE REUNION_R34_SE REUNION_R34_SW REUNION_R34_NW REUNION_R50_NE REUNION_R50_SE REUNION_R50_SW REUNION_R50_NW REUNION_R64_NE REUNION_R64_SE REUNION_R64_SW REUNION_R64_NW BOM_LAT BOM_LON BOM_TYPE BOM_WIND BOM_PRES BOM_TNUM BOM_CI BOM_RMW BOM_R34_NE BOM_R34_SE BOM_R34_SW BOM_R34_NW BOM_R50_NE BOM_R50_SE BOM_R50_SW BOM_R50_NW BOM_R64_NE BOM_R64_SE BOM_R64_SW BOM_R64_NW BOM_ROCI BOM_POCI BOM_EYE BOM_POS_METHOD BOM_PRES_METHOD NADI_LAT NADI_LON NADI_CAT NADI_WIND NADI_PRES WELLINGTON_LAT WELLINGTON_LON WELLINGTON_WIND WELLINGTON_PRES DS824_LAT DS824_LON DS824_STAGE DS824_WIND DS824_PRES TD9636_LAT TD9636_LON TD9636_STAGE TD9636_WIND TD9636_PRES TD9635_LAT TD9635_LON TD9635_WIND TD9635_PRES TD9635_ROCI NEUMANN_LAT NEUMANN_LON NEUMANN_CLASS NEUMANN_WIND NEUMANN_PRES MLC_LAT MLC_LON MLC_CLASS MLC_WIND MLC_PRES USA_GUST BOM_GUST BOM_GUST_PER REUNION_GUST REUNION_GUST_PER USA_SEAHGT USA_SEARAD_NE USA_SEARAD_SE USA_SEARAD_SW USA_SEARAD_NW STORM_SPEED STORM_DIR
1942026N09150 1942 4 WP MM NOT_NAMED 1942-01-25 12:00:00 NR 8.50000 150.000 main 1222 1191 __________O___ -1 8.50000 150.000 4 19 263
1942026N09150 1942 4 WP MM NOT_NAMED 1942-01-25 15:00:00 NR 8.38044 149.024 main 1189 1167 __________P___ -1 8.38044 149.024 4 19 264
1942026N09150 1942 4 WP MM NOT_NAMED 1942-01-25 18:00:00 NR 8.28758 148.079 main 1167 1165 __________P___ -1 8.28758 148.079 4 18 266
1942026N09150 1942 4 WP MM NOT_NAMED 1942-01-25 21:00:00 NR 8.25089 147.194 main 1165 1165 __________P___ -1 8.25089 147.194 4 17 270
1942026N09150 1942 4 WP MM NOT_NAMED 1942-01-26 00:00:00 NR 8.30000 146.400 main 1165 1165 __________O___ -1 8.30000 146.400 4 15 278
1942026N09150 1942 4 WP MM NOT_NAMED 1942-01-26 03:00:00 NR 8.45300 145.714 main 1191 1191 __________P___ -1 8.45300 145.714 4 13 287
1942026N09150 1942 4 WP MM NOT_NAMED 1942-01-26 06:00:00 NR 8.68114 145.111 main 1221 1221 __________P___ -1 8.68114 145.111 4 13 293
1942026N09150 1942 4 WP MM NOT_NAMED 1942-01-26 09:00:00 NR 8.94378 144.552 main 1252 1252 __________P___ -1 8.94378 144.552 4 12 295
1942026N09150 1942 4 WP MM NOT_NAMED 1942-01-26 12:00:00 NR 9.20000 144.000 main 1298 1298 __________O___ -1 9.20000 144.000 4 13 292
1942026N09150 1942 4 WP MM NOT_NAMED 1942-01-26 15:00:00 NR 9.42205 143.352 main 1336 1336 __________P___ -1 9.42205 143.352 4 13 288
1942026N09150 1942 4 WP MM NOT_NAMED 1942-01-26 18:00:00 NR 9.62534 142.710 main 1350 1345 __________P___ -1 9.62534 142.710 4 13 287
1942026N09150 1942 4 WP MM NOT_NAMED 1942-01-26 21:00:00 NR 9.79090 142.114 main 1348 1341 __________P___ -1 9.79090 142.114 4 11 284
1942026N09150 1942 4 WP MM NOT_NAMED 1942-01-27 00:00:00 NR 9.90000 141.600 main 1342 1330 __________O___ -1 9.90000 141.600 4 9 280
1942026N09150 1942 4 WP MM NOT_NAMED 1942-01-27 03:00:00 NR 9.94002 141.209 main 1330 1320 __________P___ -1 9.94002 141.209 4 7 272
1942026N09150 1942 4 WP MM NOT_NAMED 1942-01-27 06:00:00 NR 9.92427 140.902 main 1320 1311 __________P___ -1 9.92427 140.902 4 6 263
1942026N09150 1942 4 WP MM NOT_NAMED 1942-01-27 09:00:00 NR 9.87143 140.644 main 1307 1288 __________P___ -1 9.87143 140.644 4 5 256
1942026N09150 1942 4 WP MM NOT_NAMED 1942-01-27 12:00:00 NR 9.80000 140.400 main 1288 1279 __________O___ -1 9.80000 140.400 4 5 258
1942026N09150 1942 4 WP MM NOT_NAMED 1942-01-27 15:00:00 NR 9.76755 140.142 main 1275 1257 __________P___ -1 9.76755 140.142 4 5 261
1942026N09150 1942 4 WP MM NOT_NAMED 1942-01-27 18:00:00 NR 9.71711 139.888 main 1257 1235 __________P___ -1 9.71711 139.888 4 5 256
1942026N09150 1942 4 WP MM NOT_NAMED 1942-01-27 21:00:00 NR 9.63313 139.614 main 1235 1214 __________P___ -1 9.63313 139.614 4 6 249
1942026N09150 1942 4 WP MM NOT_NAMED 1942-01-28 00:00:00 NR 9.50000 139.300 main 1214 1178 __________O___ -1 9.50000 139.300 4 8 245
1942026N09150 1942 4 WP MM NOT_NAMED 1942-01-28 03:00:00 NR 9.30459 138.898 main 1178 1144 __________P___ -1 9.30459 138.898 4 9 242
1942026N09150 1942 4 WP MM NOT_NAMED 1942-01-28 06:00:00 NR 9.06030 138.457 main 1144 1097 __________P___ -1 9.06030 138.457 4 10 239
1942026N09150 1942 4 WP MM NOT_NAMED 1942-01-28 09:00:00 NR 8.78582 138.013 main 1097 1054 __________P___ -1 8.78582 138.013 4 10 237
1942026N09150 1942 4 WP MM NOT_NAMED 1942-01-28 12:00:00 NR 8.50000 137.600 main 1054 1014 __________O___ -1 8.50000 137.600 4 10 233
1942026N09150 1942 4 WP MM NOT_NAMED 1942-01-28 15:00:00 NR 8.21833 137.243 main 1012 987 __________P___ -1 8.21833 137.243 4 9 230
1942026N09150 1942 4 WP MM NOT_NAMED 1942-01-28 18:00:00 NR 7.94240 136.935 main 974 949 __________P___ -1 7.94240 136.935 4 8 227
1942026N09150 1942 4 WP MM NOT_NAMED 1942-01-28 21:00:00 NR 7.67028 136.659 main 949 912 __________P___ -1 7.67028 136.659 4 8 224
1942026N09150 1942 4 WP MM NOT_NAMED 1942-01-29 00:00:00 NR 7.40000 136.400 main 912 __________O___ -1 7.40000 136.400 4 7 224

Digital Typhoon Data and Search

About IBTrACS Database

This database is a web-friendly format of International Best Track Archive for Climate Stewardship (IBTrACS), a global best track data archive curated by NOAA dating back to 1842.

Updated: 2021-10-21